sensor_id;sensor_type;location;lat;lon;timestamp;P1;P2;P0
54869;PMS5003;40756;-37.950;145.008;2022-07-18T00:00:47;2;1;
54869;PMS5003;40756;-37.950;145.008;2022-07-18T00:03:17;2;1;
54869;PMS5003;40756;-37.950;145.008;2022-07-18T00:05:47;0;0;
54869;PMS5003;40756;-37.950;145.008;2022-07-18T00:08:17;1;1;
54869;PMS5003;40756;-37.950;145.008;2022-07-18T00:10:46;1;1;
54869;PMS5003;40756;-37.950;145.008;2022-07-18T00:13:16;2;2;
54869;PMS5003;40756;-37.950;145.008;2022-07-18T00:15:46;1;0;
54869;PMS5003;40756;-37.950;145.008;2022-07-18T00:18:16;0;0;
54869;PMS5003;40756;-37.950;145.008;2022-07-18T00:20:46;1;1;
54869;PMS5003;40756;-37.950;145.008;2022-07-18T00:23:15;4;3;
54869;PMS5003;40756;-37.950;145.008;2022-07-18T00:25:45;2;2;
54869;PMS5003;40756;-37.950;145.008;2022-07-18T00:28:15;2;2;
54869;PMS5003;40756;-37.950;145.008;2022-07-18T00:30:45;3;2;
54869;PMS5003;40756;-37.950;145.008;2022-07-18T00:33:15;3;1;
54869;PMS5003;40756;-37.950;145.008;2022-07-18T00:35:45;1;1;
54869;PMS5003;40756;-37.950;145.008;2022-07-18T00:38:15;1;1;
54869;PMS5003;40756;-37.950;145.008;2022-07-18T00:40:45;2;2;
54869;PMS5003;40756;-37.950;145.008;2022-07-18T00:43:15;2;2;
54869;PMS5003;40756;-37.950;145.008;2022-07-18T00:45:44;1;1;
54869;PMS5003;40756;-37.950;145.008;2022-07-18T00:48:15;3;1;
54869;PMS5003;40756;-37.950;145.008;2022-07-18T00:50:45;1;1;
54869;PMS5003;40756;-37.950;145.008;2022-07-18T00:53:15;2;1;
54869;PMS5003;40756;-37.950;145.008;2022-07-18T00:55:45;1;1;
54869;PMS5003;40756;-37.950;145.008;2022-07-18T00:58:15;1;1;
54869;PMS5003;40756;-37.950;145.008;2022-07-18T01:00:44;2;1;
54869;PMS5003;40756;-37.950;145.008;2022-07-18T01:03:14;4;4;
54869;PMS5003;40756;-37.950;145.008;2022-07-18T01:05:44;3;3;
54869;PMS5003;40756;-37.950;145.008;2022-07-18T01:08:14;7;4;
54869;PMS5003;40756;-37.950;145.008;2022-07-18T01:10:44;4;3;
54869;PMS5003;40756;-37.950;145.008;2022-07-18T01:13:14;4;4;
54869;PMS5003;40756;-37.950;145.008;2022-07-18T01:15:44;2;2;
54869;PMS5003;40756;-37.950;145.008;2022-07-18T01:18:14;1;1;
54869;PMS5003;40756;-37.950;145.008;2022-07-18T01:20:43;3;2;
54869;PMS5003;40756;-37.950;145.008;2022-07-18T01:23:13;2;1;
54869;PMS5003;40756;-37.950;145.008;2022-07-18T01:25:43;2;1;
54869;PMS5003;40756;-37.950;145.008;2022-07-18T01:28:13;2;1;
54869;PMS5003;40756;-37.950;145.008;2022-07-18T01:30:43;2;2;
54869;PMS5003;40756;-37.950;145.008;2022-07-18T01:33:13;1;1;
54869;PMS5003;40756;-37.950;145.008;2022-07-18T01:35:44;2;2;
54869;PMS5003;40756;-37.950;145.008;2022-07-18T01:38:13;4;3;
54869;PMS5003;40756;-37.950;145.008;2022-07-18T01:40:43;3;3;
54869;PMS5003;40756;-37.950;145.008;2022-07-18T01:43:13;2;1;
54869;PMS5003;40756;-37.950;145.008;2022-07-18T01:45:42;2;1;
54869;PMS5003;40756;-37.950;145.008;2022-07-18T01:48:12;2;0;
54869;PMS5003;40756;-37.950;145.008;2022-07-18T01:50:42;0;0;
54869;PMS5003;40756;-37.950;145.008;2022-07-18T01:53:12;1;1;
54869;PMS5003;40756;-37.950;145.008;2022-07-18T01:55:41;2;1;
54869;PMS5003;40756;-37.950;145.008;2022-07-18T01:58:11;2;1;
54869;PMS5003;40756;-37.950;145.008;2022-07-18T02:00:41;1;0;
54869;PMS5003;40756;-37.950;145.008;2022-07-18T02:03:10;1;0;
54869;PMS5003;40756;-37.950;145.008;2022-07-18T02:05:40;0;0;
54869;PMS5003;40756;-37.950;145.008;2022-07-18T02:08:09;1;0;
54869;PMS5003;40756;-37.950;145.008;2022-07-18T02:10:39;0;0;
54869;PMS5003;40756;-37.950;145.008;2022-07-18T02:13:09;0;0;
54869;PMS5003;40756;-37.950;145.008;2022-07-18T02:15:39;1;1;
54869;PMS5003;40756;-37.950;145.008;2022-07-18T02:18:09;2;2;
54869;PMS5003;40756;-37.950;145.008;2022-07-18T02:20:38;0;0;
54869;PMS5003;40756;-37.950;145.008;2022-07-18T02:23:08;2;0;
54869;PMS5003;40756;-37.950;145.008;2022-07-18T02:25:38;0;0;
54869;PMS5003;40756;-37.950;145.008;2022-07-18T02:28:08;1;0;
54869;PMS5003;40756;-37.950;145.008;2022-07-18T02:30:37;0;0;
54869;PMS5003;40756;-37.950;145.008;2022-07-18T02:33:07;0;0;
54869;PMS5003;40756;-37.950;145.008;2022-07-18T02:35:37;1;0;
54869;PMS5003;40756;-37.950;145.008;2022-07-18T02:38:07;0;0;
54869;PMS5003;40756;-37.950;145.008;2022-07-18T02:40:37;1;0;
54869;PMS5003;40756;-37.950;145.008;2022-07-18T02:43:07;0;0;
54869;PMS5003;40756;-37.950;145.008;2022-07-18T02:45:37;1;0;
54869;PMS5003;40756;-37.950;145.008;2022-07-18T02:48:06;0;0;
54869;PMS5003;40756;-37.950;145.008;2022-07-18T02:50:36;1;1;
54869;PMS5003;40756;-37.950;145.008;2022-07-18T02:53:06;3;2;
54869;PMS5003;40756;-37.950;145.008;2022-07-18T02:55:35;0;0;
54869;PMS5003;40756;-37.950;145.008;2022-07-18T02:58:05;1;1;
54869;PMS5003;40756;-37.950;145.008;2022-07-18T03:00:35;1;1;
54869;PMS5003;40756;-37.950;145.008;2022-07-18T03:03:04;1;1;
54869;PMS5003;40756;-37.950;145.008;2022-07-18T03:05:34;0;0;
54869;PMS5003;40756;-37.950;145.008;2022-07-18T03:08:04;1;1;
54869;PMS5003;40756;-37.950;145.008;2022-07-18T03:10:34;2;2;
54869;PMS5003;40756;-37.950;145.008;2022-07-18T03:13:03;2;1;
54869;PMS5003;40756;-37.950;145.008;2022-07-18T03:15:33;1;1;
54869;PMS5003;40756;-37.950;145.008;2022-07-18T03:18:03;0;0;
54869;PMS5003;40756;-37.950;145.008;2022-07-18T03:20:32;1;1;
54869;PMS5003;40756;-37.950;145.008;2022-07-18T03:23:04;1;1;
54869;PMS5003;40756;-37.950;145.008;2022-07-18T03:25:35;2;1;
54869;PMS5003;40756;-37.950;145.008;2022-07-18T03:28:04;0;0;
54869;PMS5003;40756;-37.950;145.008;2022-07-18T03:30:34;0;0;
54869;PMS5003;40756;-37.950;145.008;2022-07-18T03:33:04;0;0;
54869;PMS5003;40756;-37.950;145.008;2022-07-18T03:35:33;1;1;
54869;PMS5003;40756;-37.950;145.008;2022-07-18T03:38:03;4;2;
54869;PMS5003;40756;-37.950;145.008;2022-07-18T03:40:33;0;0;
54869;PMS5003;40756;-37.950;145.008;2022-07-18T03:43:03;2;1;
54869;PMS5003;40756;-37.950;145.008;2022-07-18T03:45:33;1;1;
54869;PMS5003;40756;-37.950;145.008;2022-07-18T03:48:03;3;3;
54869;PMS5003;40756;-37.950;145.008;2022-07-18T03:50:32;0;0;
54869;PMS5003;40756;-37.950;145.008;2022-07-18T03:53:02;1;0;
54869;PMS5003;40756;-37.950;145.008;2022-07-18T03:55:32;0;0;
54869;PMS5003;40756;-37.950;145.008;2022-07-18T03:58:01;0;0;
54869;PMS5003;40756;-37.950;145.008;2022-07-18T04:00:31;2;1;
54869;PMS5003;40756;-37.950;145.008;2022-07-18T04:03:01;1;1;
54869;PMS5003;40756;-37.950;145.008;2022-07-18T04:05:31;0;0;
54869;PMS5003;40756;-37.950;145.008;2022-07-18T04:08:00;1;0;
54869;PMS5003;40756;-37.950;145.008;2022-07-18T04:10:30;1;0;
54869;PMS5003;40756;-37.950;145.008;2022-07-18T04:13:00;3;1;
54869;PMS5003;40756;-37.950;145.008;2022-07-18T04:15:29;1;0;
54869;PMS5003;40756;-37.950;145.008;2022-07-18T04:17:59;1;1;
54869;PMS5003;40756;-37.950;145.008;2022-07-18T04:20:29;1;1;
54869;PMS5003;40756;-37.950;145.008;2022-07-18T04:23:00;3;3;
54869;PMS5003;40756;-37.950;145.008;2022-07-18T04:25:33;4;4;
54869;PMS5003;40756;-37.950;145.008;2022-07-18T04:28:04;4;4;
54869;PMS5003;40756;-37.950;145.008;2022-07-18T04:30:37;3;1;
54869;PMS5003;40756;-37.950;145.008;2022-07-18T04:33:08;5;5;
54869;PMS5003;40756;-37.950;145.008;2022-07-18T04:35:38;2;1;
54869;PMS5003;40756;-37.950;145.008;2022-07-18T04:38:08;2;1;
54869;PMS5003;40756;-37.950;145.008;2022-07-18T04:40:40;1;1;
54869;PMS5003;40756;-37.950;145.008;2022-07-18T04:43:09;1;1;
54869;PMS5003;40756;-37.950;145.008;2022-07-18T04:45:38;0;0;
54869;PMS5003;40756;-37.950;145.008;2022-07-18T04:48:08;3;2;
54869;PMS5003;40756;-37.950;145.008;2022-07-18T04:50:38;6;4;
54869;PMS5003;40756;-37.950;145.008;2022-07-18T04:53:08;5;4;
54869;PMS5003;40756;-37.950;145.008;2022-07-18T04:55:38;0;0;
54869;PMS5003;40756;-37.950;145.008;2022-07-18T04:58:07;0;0;
54869;PMS5003;40756;-37.950;145.008;2022-07-18T05:00:37;9;9;
54869;PMS5003;40756;-37.950;145.008;2022-07-18T05:03:07;8;8;
54869;PMS5003;40756;-37.950;145.008;2022-07-18T05:05:36;8;7;
54869;PMS5003;40756;-37.950;145.008;2022-07-18T05:08:06;5;5;
54869;PMS5003;40756;-37.950;145.008;2022-07-18T05:10:36;6;6;
54869;PMS5003;40756;-37.950;145.008;2022-07-18T05:13:06;5;4;
54869;PMS5003;40756;-37.950;145.008;2022-07-18T05:15:35;5;4;
54869;PMS5003;40756;-37.950;145.008;2022-07-18T05:18:05;1;0;
54869;PMS5003;40756;-37.950;145.008;2022-07-18T05:20:35;3;3;
54869;PMS5003;40756;-37.950;145.008;2022-07-18T05:23:05;1;0;
54869;PMS5003;40756;-37.950;145.008;2022-07-18T05:25:34;6;6;
54869;PMS5003;40756;-37.950;145.008;2022-07-18T05:28:05;0;0;
54869;PMS5003;40756;-37.950;145.008;2022-07-18T05:30:35;2;1;
54869;PMS5003;40756;-37.950;145.008;2022-07-18T05:33:04;1;1;
54869;PMS5003;40756;-37.950;145.008;2022-07-18T05:35:34;1;1;
54869;PMS5003;40756;-37.950;145.008;2022-07-18T05:38:04;0;0;
54869;PMS5003;40756;-37.950;145.008;2022-07-18T05:40:34;2;2;
54869;PMS5003;40756;-37.950;145.008;2022-07-18T05:43:04;1;1;
54869;PMS5003;40756;-37.950;145.008;2022-07-18T05:45:34;0;0;
54869;PMS5003;40756;-37.950;145.008;2022-07-18T05:48:05;2;2;
54869;PMS5003;40756;-37.950;145.008;2022-07-18T05:50:35;2;2;
54869;PMS5003;40756;-37.950;145.008;2022-07-18T05:53:05;3;1;
54869;PMS5003;40756;-37.950;145.008;2022-07-18T05:55:39;2;2;
54869;PMS5003;40756;-37.950;145.008;2022-07-18T05:58:09;0;0;
54869;PMS5003;40756;-37.950;145.008;2022-07-18T06:00:39;0;0;
54869;PMS5003;40756;-37.950;145.008;2022-07-18T06:03:08;0;0;
54869;PMS5003;40756;-37.950;145.008;2022-07-18T06:05:38;0;0;
54869;PMS5003;40756;-37.950;145.008;2022-07-18T06:08:08;1;1;
54869;PMS5003;40756;-37.950;145.008;2022-07-18T06:10:38;1;1;
54869;PMS5003;40756;-37.950;145.008;2022-07-18T06:13:07;1;1;
54869;PMS5003;40756;-37.950;145.008;2022-07-18T06:15:37;0;0;
54869;PMS5003;40756;-37.950;145.008;2022-07-18T06:18:07;2;1;
54869;PMS5003;40756;-37.950;145.008;2022-07-18T06:20:37;1;1;
54869;PMS5003;40756;-37.950;145.008;2022-07-18T06:23:06;1;0;
54869;PMS5003;40756;-37.950;145.008;2022-07-18T06:25:36;0;0;
54869;PMS5003;40756;-37.950;145.008;2022-07-18T06:28:05;4;4;
54869;PMS5003;40756;-37.950;145.008;2022-07-18T06:30:35;2;0;
54869;PMS5003;40756;-37.950;145.008;2022-07-18T06:33:05;1;0;
54869;PMS5003;40756;-37.950;145.008;2022-07-18T06:35:35;2;0;
54869;PMS5003;40756;-37.950;145.008;2022-07-18T06:38:04;2;1;
54869;PMS5003;40756;-37.950;145.008;2022-07-18T06:40:34;2;2;
54869;PMS5003;40756;-37.950;145.008;2022-07-18T06:43:04;1;1;
54869;PMS5003;40756;-37.950;145.008;2022-07-18T06:45:35;1;0;
54869;PMS5003;40756;-37.950;145.008;2022-07-18T06:48:04;1;0;
54869;PMS5003;40756;-37.950;145.008;2022-07-18T06:50:34;1;1;
54869;PMS5003;40756;-37.950;145.008;2022-07-18T06:53:04;1;1;
54869;PMS5003;40756;-37.950;145.008;2022-07-18T06:55:34;2;2;
54869;PMS5003;40756;-37.950;145.008;2022-07-18T06:58:03;0;0;
54869;PMS5003;40756;-37.950;145.008;2022-07-18T07:00:33;1;1;
54869;PMS5003;40756;-37.950;145.008;2022-07-18T07:03:03;1;0;
54869;PMS5003;40756;-37.950;145.008;2022-07-18T07:05:33;2;1;
54869;PMS5003;40756;-37.950;145.008;2022-07-18T07:08:03;2;2;
54869;PMS5003;40756;-37.950;145.008;2022-07-18T07:10:32;1;1;
54869;PMS5003;40756;-37.950;145.008;2022-07-18T07:13:02;2;2;
54869;PMS5003;40756;-37.950;145.008;2022-07-18T07:15:31;4;3;
54869;PMS5003;40756;-37.950;145.008;2022-07-18T07:18:01;1;1;
54869;PMS5003;40756;-37.950;145.008;2022-07-18T07:20:31;1;1;
54869;PMS5003;40756;-37.950;145.008;2022-07-18T07:23:01;1;1;
54869;PMS5003;40756;-37.950;145.008;2022-07-18T07:25:31;3;3;
54869;PMS5003;40756;-37.950;145.008;2022-07-18T07:28:00;2;2;
54869;PMS5003;40756;-37.950;145.008;2022-07-18T07:30:30;2;1;
54869;PMS5003;40756;-37.950;145.008;2022-07-18T07:33:07;1;1;
54869;PMS5003;40756;-37.950;145.008;2022-07-18T07:35:37;1;1;
54869;PMS5003;40756;-37.950;145.008;2022-07-18T07:38:06;0;0;
54869;PMS5003;40756;-37.950;145.008;2022-07-18T07:40:36;2;2;
54869;PMS5003;40756;-37.950;145.008;2022-07-18T07:43:07;6;6;
54869;PMS5003;40756;-37.950;145.008;2022-07-18T07:45:38;4;4;
54869;PMS5003;40756;-37.950;145.008;2022-07-18T07:48:07;7;6;
54869;PMS5003;40756;-37.950;145.008;2022-07-18T07:50:37;13;12;
54869;PMS5003;40756;-37.950;145.008;2022-07-18T07:53:07;9;7;
54869;PMS5003;40756;-37.950;145.008;2022-07-18T07:55:37;4;4;
54869;PMS5003;40756;-37.950;145.008;2022-07-18T07:58:07;8;7;
54869;PMS5003;40756;-37.950;145.008;2022-07-18T08:00:37;6;5;
54869;PMS5003;40756;-37.950;145.008;2022-07-18T08:03:07;3;3;
54869;PMS5003;40756;-37.950;145.008;2022-07-18T08:05:37;4;4;
54869;PMS5003;40756;-37.950;145.008;2022-07-18T08:08:11;4;4;
54869;PMS5003;40756;-37.950;145.008;2022-07-18T08:10:41;2;2;
54869;PMS5003;40756;-37.950;145.008;2022-07-18T08:13:12;3;2;
54869;PMS5003;40756;-37.950;145.008;2022-07-18T08:15:41;7;7;
54869;PMS5003;40756;-37.950;145.008;2022-07-18T08:18:11;6;4;
54869;PMS5003;40756;-37.950;145.008;2022-07-18T08:20:41;5;5;
54869;PMS5003;40756;-37.950;145.008;2022-07-18T08:23:11;4;3;
54869;PMS5003;40756;-37.950;145.008;2022-07-18T08:25:42;3;3;
54869;PMS5003;40756;-37.950;145.008;2022-07-18T08:28:12;2;2;
54869;PMS5003;40756;-37.950;145.008;2022-07-18T08:30:42;4;4;
54869;PMS5003;40756;-37.950;145.008;2022-07-18T08:33:12;5;5;
54869;PMS5003;40756;-37.950;145.008;2022-07-18T08:35:42;4;3;
54869;PMS5003;40756;-37.950;145.008;2022-07-18T08:38:11;4;4;
54869;PMS5003;40756;-37.950;145.008;2022-07-18T08:40:41;3;3;
54869;PMS5003;40756;-37.950;145.008;2022-07-18T08:43:13;5;5;
54869;PMS5003;40756;-37.950;145.008;2022-07-18T08:45:45;5;5;
54869;PMS5003;40756;-37.950;145.008;2022-07-18T08:48:15;6;5;
54869;PMS5003;40756;-37.950;145.008;2022-07-18T08:50:46;7;5;
54869;PMS5003;40756;-37.950;145.008;2022-07-18T08:53:17;7;7;
54869;PMS5003;40756;-37.950;145.008;2022-07-18T08:55:48;7;5;
54869;PMS5003;40756;-37.950;145.008;2022-07-18T08:58:18;5;5;
54869;PMS5003;40756;-37.950;145.008;2022-07-18T09:00:47;5;5;
54869;PMS5003;40756;-37.950;145.008;2022-07-18T09:03:17;5;5;
54869;PMS5003;40756;-37.950;145.008;2022-07-18T09:05:47;5;4;
54869;PMS5003;40756;-37.950;145.008;2022-07-18T09:08:32;5;4;
54869;PMS5003;40756;-37.950;145.008;2022-07-18T09:11:03;5;4;
54869;PMS5003;40756;-37.950;145.008;2022-07-18T09:13:38;4;4;
54869;PMS5003;40756;-37.950;145.008;2022-07-18T09:16:09;3;3;
54869;PMS5003;40756;-37.950;145.008;2022-07-18T09:18:40;5;4;
54869;PMS5003;40756;-37.950;145.008;2022-07-18T09:21:12;4;4;
54869;PMS5003;40756;-37.950;145.008;2022-07-18T09:23:43;4;4;
54869;PMS5003;40756;-37.950;145.008;2022-07-18T09:26:33;5;5;
54869;PMS5003;40756;-37.950;145.008;2022-07-18T09:29:06;5;5;
54869;PMS5003;40756;-37.950;145.008;2022-07-18T09:31:36;3;3;
54869;PMS5003;40756;-37.950;145.008;2022-07-18T09:34:06;3;3;
54869;PMS5003;40756;-37.950;145.008;2022-07-18T09:36:36;4;4;
54869;PMS5003;40756;-37.950;145.008;2022-07-18T09:39:23;7;5;
54869;PMS5003;40756;-37.950;145.008;2022-07-18T09:41:53;5;5;
54869;PMS5003;40756;-37.950;145.008;2022-07-18T09:44:40;4;3;
54869;PMS5003;40756;-37.950;145.008;2022-07-18T09:47:10;4;4;
54869;PMS5003;40756;-37.950;145.008;2022-07-18T09:49:39;4;4;
54869;PMS5003;40756;-37.950;145.008;2022-07-18T09:52:09;5;4;
54869;PMS5003;40756;-37.950;145.008;2022-07-18T09:54:40;3;3;
54869;PMS5003;40756;-37.950;145.008;2022-07-18T09:57:22;4;4;
54869;PMS5003;40756;-37.950;145.008;2022-07-18T09:59:53;5;5;
54869;PMS5003;40756;-37.950;145.008;2022-07-18T10:02:23;4;4;
54869;PMS5003;40756;-37.950;145.008;2022-07-18T10:04:53;5;3;
54869;PMS5003;40756;-37.950;145.008;2022-07-18T10:07:28;6;5;
54869;PMS5003;40756;-37.950;145.008;2022-07-18T10:09:57;6;5;
54869;PMS5003;40756;-37.950;145.008;2022-07-18T10:12:27;5;5;
54869;PMS5003;40756;-37.950;145.008;2022-07-18T10:14:57;7;6;
54869;PMS5003;40756;-37.950;145.008;2022-07-18T10:17:27;5;5;
54869;PMS5003;40756;-37.950;145.008;2022-07-18T10:19:57;4;4;
54869;PMS5003;40756;-37.950;145.008;2022-07-18T10:22:34;5;3;
54869;PMS5003;40756;-37.950;145.008;2022-07-18T10:25:07;6;6;
54869;PMS5003;40756;-37.950;145.008;2022-07-18T10:27:54;6;6;
54869;PMS5003;40756;-37.950;145.008;2022-07-18T10:30:32;7;6;
54869;PMS5003;40756;-37.950;145.008;2022-07-18T10:33:35;7;6;
54869;PMS5003;40756;-37.950;145.008;2022-07-18T10:36:09;7;6;
54869;PMS5003;40756;-37.950;145.008;2022-07-18T10:38:42;12;10;
54869;PMS5003;40756;-37.950;145.008;2022-07-18T10:41:33;7;7;
54869;PMS5003;40756;-37.950;145.008;2022-07-18T10:44:40;7;7;
54869;PMS5003;40756;-37.950;145.008;2022-07-18T10:47:11;9;8;
54869;PMS5003;40756;-37.950;145.008;2022-07-18T10:50:14;12;11;
54869;PMS5003;40756;-37.950;145.008;2022-07-18T10:53:00;8;8;
54869;PMS5003;40756;-37.950;145.008;2022-07-18T10:55:31;9;9;
54869;PMS5003;40756;-37.950;145.008;2022-07-18T10:58:17;8;8;
54869;PMS5003;40756;-37.950;145.008;2022-07-18T11:00:49;8;7;
54869;PMS5003;40756;-37.950;145.008;2022-07-18T11:03:25;5;5;
54869;PMS5003;40756;-37.950;145.008;2022-07-18T11:05:56;6;5;
54869;PMS5003;40756;-37.950;145.008;2022-07-18T11:08:25;4;3;
54869;PMS5003;40756;-37.950;145.008;2022-07-18T11:11:11;5;4;
54869;PMS5003;40756;-37.950;145.008;2022-07-18T11:13:42;4;4;
54869;PMS5003;40756;-37.950;145.008;2022-07-18T11:16:15;6;5;
54869;PMS5003;40756;-37.950;145.008;2022-07-18T11:19:16;4;4;
54869;PMS5003;40756;-37.950;145.008;2022-07-18T11:21:48;8;7;
54869;PMS5003;40756;-37.950;145.008;2022-07-18T11:24:26;6;5;
54869;PMS5003;40756;-37.950;145.008;2022-07-18T11:26:57;8;7;
54869;PMS5003;40756;-37.950;145.008;2022-07-18T11:29:33;6;5;
54869;PMS5003;40756;-37.950;145.008;2022-07-18T11:32:09;6;6;
54869;PMS5003;40756;-37.950;145.008;2022-07-18T11:34:39;6;5;
54869;PMS5003;40756;-37.950;145.008;2022-07-18T11:37:18;9;8;
54869;PMS5003;40756;-37.950;145.008;2022-07-18T11:39:48;6;6;
54869;PMS5003;40756;-37.950;145.008;2022-07-18T11:42:18;7;7;
54869;PMS5003;40756;-37.950;145.008;2022-07-18T11:45:05;5;5;
54869;PMS5003;40756;-37.950;145.008;2022-07-18T11:47:38;7;6;
54869;PMS5003;40756;-37.950;145.008;2022-07-18T11:50:12;5;5;
54869;PMS5003;40756;-37.950;145.008;2022-07-18T11:52:43;7;6;
54869;PMS5003;40756;-37.950;145.008;2022-07-18T11:55:13;4;4;
54869;PMS5003;40756;-37.950;145.008;2022-07-18T11:57:43;5;4;
54869;PMS5003;40756;-37.950;145.008;2022-07-18T12:00:15;2;1;
54869;PMS5003;40756;-37.950;145.008;2022-07-18T12:02:59;2;2;
54869;PMS5003;40756;-37.950;145.008;2022-07-18T12:05:36;3;2;
54869;PMS5003;40756;-37.950;145.008;2022-07-18T12:08:25;2;2;
54869;PMS5003;40756;-37.950;145.008;2022-07-18T12:11:04;3;1;
54869;PMS5003;40756;-37.950;145.008;2022-07-18T12:13:52;2;2;
54869;PMS5003;40756;-37.950;145.008;2022-07-18T12:16:27;4;3;
54869;PMS5003;40756;-37.950;145.008;2022-07-18T12:18:58;5;4;
54869;PMS5003;40756;-37.950;145.008;2022-07-18T12:21:40;7;7;
54869;PMS5003;40756;-37.950;145.008;2022-07-18T12:24:19;6;6;
54869;PMS5003;40756;-37.950;145.008;2022-07-18T12:27:09;7;6;
54869;PMS5003;40756;-37.950;145.008;2022-07-18T12:30:17;6;5;
54869;PMS5003;40756;-37.950;145.008;2022-07-18T12:32:49;4;4;
54869;PMS5003;40756;-37.950;145.008;2022-07-18T12:35:21;6;5;
54869;PMS5003;40756;-37.950;145.008;2022-07-18T12:37:53;6;5;
54869;PMS5003;40756;-37.950;145.008;2022-07-18T12:40:24;5;5;
54869;PMS5003;40756;-37.950;145.008;2022-07-18T12:43:05;6;5;
54869;PMS5003;40756;-37.950;145.008;2022-07-18T12:45:37;5;5;
54869;PMS5003;40756;-37.950;145.008;2022-07-18T12:48:09;4;4;
54869;PMS5003;40756;-37.950;145.008;2022-07-18T12:50:40;7;6;
54869;PMS5003;40756;-37.950;145.008;2022-07-18T12:53:11;5;4;
54869;PMS5003;40756;-37.950;145.008;2022-07-18T12:55:41;4;4;
54869;PMS5003;40756;-37.950;145.008;2022-07-18T12:58:10;5;5;
54869;PMS5003;40756;-37.950;145.008;2022-07-18T13:00:40;4;4;
54869;PMS5003;40756;-37.950;145.008;2022-07-18T13:03:10;10;10;
54869;PMS5003;40756;-37.950;145.008;2022-07-18T13:05:40;15;14;
54869;PMS5003;40756;-37.950;145.008;2022-07-18T13:08:10;14;14;
54869;PMS5003;40756;-37.950;145.008;2022-07-18T13:10:40;14;13;
54869;PMS5003;40756;-37.950;145.008;2022-07-18T13:13:10;12;12;
54869;PMS5003;40756;-37.950;145.008;2022-07-18T13:15:40;11;10;
54869;PMS5003;40756;-37.950;145.008;2022-07-18T13:18:10;14;14;
54869;PMS5003;40756;-37.950;145.008;2022-07-18T13:20:40;11;10;
54869;PMS5003;40756;-37.950;145.008;2022-07-18T13:23:10;9;8;
54869;PMS5003;40756;-37.950;145.008;2022-07-18T13:25:40;10;10;
54869;PMS5003;40756;-37.950;145.008;2022-07-18T13:28:10;12;12;
54869;PMS5003;40756;-37.950;145.008;2022-07-18T13:30:41;16;14;
54869;PMS5003;40756;-37.950;145.008;2022-07-18T13:33:11;16;13;
54869;PMS5003;40756;-37.950;145.008;2022-07-18T13:35:41;15;13;
54869;PMS5003;40756;-37.950;145.008;2022-07-18T13:38:11;16;13;
54869;PMS5003;40756;-37.950;145.008;2022-07-18T13:40:41;9;7;
54869;PMS5003;40756;-37.950;145.008;2022-07-18T13:43:11;7;7;
54869;PMS5003;40756;-37.950;145.008;2022-07-18T13:45:40;9;8;
54869;PMS5003;40756;-37.950;145.008;2022-07-18T13:48:10;6;6;
54869;PMS5003;40756;-37.950;145.008;2022-07-18T13:50:40;9;8;
54869;PMS5003;40756;-37.950;145.008;2022-07-18T13:53:10;8;7;
54869;PMS5003;40756;-37.950;145.008;2022-07-18T13:55:39;8;8;
54869;PMS5003;40756;-37.950;145.008;2022-07-18T13:58:09;10;9;
54869;PMS5003;40756;-37.950;145.008;2022-07-18T14:00:39;14;12;
54869;PMS5003;40756;-37.950;145.008;2022-07-18T14:03:10;18;16;
54869;PMS5003;40756;-37.950;145.008;2022-07-18T14:05:41;12;12;
54869;PMS5003;40756;-37.950;145.008;2022-07-18T14:08:11;17;17;
54869;PMS5003;40756;-37.950;145.008;2022-07-18T14:10:40;9;9;
54869;PMS5003;40756;-37.950;145.008;2022-07-18T14:13:10;9;8;
54869;PMS5003;40756;-37.950;145.008;2022-07-18T14:15:39;11;10;
54869;PMS5003;40756;-37.950;145.008;2022-07-18T14:18:08;8;8;
54869;PMS5003;40756;-37.950;145.008;2022-07-18T14:20:38;7;7;
54869;PMS5003;40756;-37.950;145.008;2022-07-18T14:23:08;8;8;
54869;PMS5003;40756;-37.950;145.008;2022-07-18T14:25:38;7;7;
54869;PMS5003;40756;-37.950;145.008;2022-07-18T14:28:08;8;7;
54869;PMS5003;40756;-37.950;145.008;2022-07-18T14:30:37;7;7;
54869;PMS5003;40756;-37.950;145.008;2022-07-18T14:33:07;10;9;
54869;PMS5003;40756;-37.950;145.008;2022-07-18T14:35:37;7;6;
54869;PMS5003;40756;-37.950;145.008;2022-07-18T14:38:07;7;6;
54869;PMS5003;40756;-37.950;145.008;2022-07-18T14:40:37;12;7;
54869;PMS5003;40756;-37.950;145.008;2022-07-18T14:43:07;7;6;
54869;PMS5003;40756;-37.950;145.008;2022-07-18T14:45:37;9;9;
54869;PMS5003;40756;-37.950;145.008;2022-07-18T14:48:08;11;9;
54869;PMS5003;40756;-37.950;145.008;2022-07-18T14:50:37;11;10;
54869;PMS5003;40756;-37.950;145.008;2022-07-18T14:53:06;10;9;
54869;PMS5003;40756;-37.950;145.008;2022-07-18T14:55:36;12;10;
54869;PMS5003;40756;-37.950;145.008;2022-07-18T14:58:06;8;8;
54869;PMS5003;40756;-37.950;145.008;2022-07-18T15:00:35;12;11;
54869;PMS5003;40756;-37.950;145.008;2022-07-18T15:03:05;10;9;
54869;PMS5003;40756;-37.950;145.008;2022-07-18T15:05:35;13;12;
54869;PMS5003;40756;-37.950;145.008;2022-07-18T15:08:05;11;11;
54869;PMS5003;40756;-37.950;145.008;2022-07-18T15:10:35;9;8;
54869;PMS5003;40756;-37.950;145.008;2022-07-18T15:13:04;9;9;
54869;PMS5003;40756;-37.950;145.008;2022-07-18T15:15:34;11;10;
54869;PMS5003;40756;-37.950;145.008;2022-07-18T15:18:04;11;11;
54869;PMS5003;40756;-37.950;145.008;2022-07-18T15:20:33;7;7;
54869;PMS5003;40756;-37.950;145.008;2022-07-18T15:23:03;9;9;
54869;PMS5003;40756;-37.950;145.008;2022-07-18T15:25:32;8;8;
54869;PMS5003;40756;-37.950;145.008;2022-07-18T15:28:03;11;11;
54869;PMS5003;40756;-37.950;145.008;2022-07-18T15:30:32;12;9;
54869;PMS5003;40756;-37.950;145.008;2022-07-18T15:33:03;9;8;
54869;PMS5003;40756;-37.950;145.008;2022-07-18T15:35:32;9;8;
54869;PMS5003;40756;-37.950;145.008;2022-07-18T15:38:02;11;10;
54869;PMS5003;40756;-37.950;145.008;2022-07-18T15:40:32;10;9;
54869;PMS5003;40756;-37.950;145.008;2022-07-18T15:43:02;9;8;
54869;PMS5003;40756;-37.950;145.008;2022-07-18T15:45:31;10;9;
54869;PMS5003;40756;-37.950;145.008;2022-07-18T15:48:01;13;12;
54869;PMS5003;40756;-37.950;145.008;2022-07-18T15:50:32;10;9;
54869;PMS5003;40756;-37.950;145.008;2022-07-18T15:53:02;11;10;
54869;PMS5003;40756;-37.950;145.008;2022-07-18T15:55:32;11;9;
54869;PMS5003;40756;-37.950;145.008;2022-07-18T15:58:02;8;8;
54869;PMS5003;40756;-37.950;145.008;2022-07-18T16:00:31;9;8;
54869;PMS5003;40756;-37.950;145.008;2022-07-18T16:03:01;9;9;
54869;PMS5003;40756;-37.950;145.008;2022-07-18T16:05:31;8;8;
54869;PMS5003;40756;-37.950;145.008;2022-07-18T16:08:00;12;12;
54869;PMS5003;40756;-37.950;145.008;2022-07-18T16:10:31;8;8;
54869;PMS5003;40756;-37.950;145.008;2022-07-18T16:13:00;9;9;
54869;PMS5003;40756;-37.950;145.008;2022-07-18T16:15:29;10;8;
54869;PMS5003;40756;-37.950;145.008;2022-07-18T16:17:59;10;9;
54869;PMS5003;40756;-37.950;145.008;2022-07-18T16:20:29;9;8;
54869;PMS5003;40756;-37.950;145.008;2022-07-18T16:22:59;13;12;
54869;PMS5003;40756;-37.950;145.008;2022-07-18T16:25:29;10;9;